ADDS METAR Data INFO
IDs: Format: Raw Decoded Include TAF

Data at: 0520 UTC 19 Jan 2018

KPAE 190453Z AUTO 14012G20KT 10SM CLR 04/03 A2978 RMK AO2 RAE33 SLP087 P0000 T00440033

KPAE 190304Z 1903/1924 13012KT P6SM VCSH SCT035 BKN050
  TEMPO 1903/1906 5SM -SHRA BR OVC025
  FM190600 17012KT P6SM VCSH BKN035 BKN080
  FM191700 18006KT P6SM SCT040 SCT100


KAWO 190456Z AUTO 14015KT 10SM FEW027 BKN032 06/03 A2978 RMK AO2 RAE40 SLP089 P0001 T00560033
No TAF found for KAWO

KBFI 190453Z 13007KT 10SM FEW020 SCT040 06/04 A2981 RMK AO2 RAB22E53 SLP093 P0001 T00560039

KBFI 190302Z 1903/1924 13005KT P6SM VCSH SCT040 BKN060
  FM190600 16009KT P6SM VCSH BKN040 BKN060
  FM191700 18006KT P6SM SCT050 SCT100


KRNT 190453Z AUTO 33003KT 10SM BKN046 06/04 A2981 RMK AO2 SLP100 T00560039
No TAF found for KRNT

KSEA 190453Z 00000KT 10SM SCT038 BKN080 BKN180 06/02 A2980 RMK AO2 SLP099 T00560022

KSEA 190301Z 1903/2006 14010KT P6SM VCSH SCT035 BKN060
  FM190600 18009KT P6SM VCSH BKN035 BKN060
  FM191700 18006KT P6SM SCT050 SCT100